ETEB 250756Z AUTO 12011KT 9999 CLR 15/04 A2987 RMK AO2 SLP124 T01510039 $ EDMA 250820Z 09011KT 060V130 CAVOK 18/04 Q1011 ETIK 250756Z AUTO 10007KT 9000 HZ CLR 17/05 A2987 RMK AO2 SLP114 T01650045 $ EDDT 250820Z 23006KT 170V280 CAVOK 17/08 Q1012 NOSIG LSZB 250820Z 00000KT CAVOK 13/08 Q1008 NOSIG LIPB 250750Z VRB02KT 9999 FEW020 SCT040 15/12 Q1019 RMK MON CLD SCT EDVE 250820Z 19005KT 130V260 CAVOK 17/06 Q1011 EDDW 250820Z 17011KT CAVOK 15/09 Q1009 NOSIG LFMD 250800Z AUTO 00000KT 9999 OVC086 15/09 Q1018 BECMG 09010KT EDLW 250820Z 19016KT 150V250 CAVOK 15/05 Q1008 EDDC 250820Z VRB02KT CAVOK 18/03 Q1014 NOSIG EDDL 250820Z 17014KT 130V200 CAVOK 15/07 Q1007 BECMG 17015G25KT EDDE 250820Z 12005KT 100V160 CAVOK 17/04 Q1011 NOSIG LIRQ 250820Z 28003KT 230V350 CAVOK 18/13 Q1019 EDDF 250820Z VRB03KT CAVOK 15/05 Q1010 NOSIG EDNY 250820Z 15007KT 120V190 CAVOK 19/04 Q1009 ETHF 250820Z 17004KT 9999 FEW100 SCT240 14/07 Q1011 BLU+BLU+ LIMJ 250820Z VRB05KT 9999 FEW018 BKN055 16/14 Q1018 ETIC 250756Z AUTO 11003KT 9999 CLR 15/05 A2990 RMK AO2 SLP120 T01540053 $ LOWG 250820Z 15006KT 060V230 9999 FEW050 21/07 Q1016 NOSIG EDDH 250820Z 14007KT 100V190 CAVOK 16/08 Q1010 NOSIG EDDV 250820Z 19009KT 130V220 CAVOK 16/07 Q1010 NOSIG EDQM 250820Z 11007KT 070V140 CAVOK 16/04 Q1013 ETIH 250756Z AUTO 07004KT 9999 CLR 17/06 A2991 RMK AO2 SLP122 T01670059 $ ETSI 250820Z 06006KT 9999 FEW250 17/05 Q1011 BLU+BLU+ LOWI 250820Z 12018G40KT 070V200 9999 FEW070 17/03 Q1013 NOSIG EDVK 250820Z 14013KT CAVOK 16/06 Q1010 EDHK 250820Z /////KT 9999 FEW021 16/10 Q1010 LOWK 250820Z 27007KT 170V330 9999 FEW050 19/08 Q1018 NOSIG EDDK 250820Z 16014KT CAVOK 14/06 Q1008 NOSIG EDDP 250820Z 17008KT CAVOK 18/06 Q1013 NOSIG LOWL 250820Z 10007KT CAVOK 20/07 Q1013 NOSIG LSZA 250820Z VRB02KT 9999 SCT045 16/12 Q1019 NOSIG EDHL 250820Z 19007KT 150V230 CAVOK 16/08 Q1010 LIML 250820Z 09005KT 060V120 4000 BR SCT005 BKN030 14/13 Q1019 NOSIG LFML 250800Z AUTO 12020KT 9999 FEW032 17/10 Q1013 NOSIG LFMT 250800Z AUTO 15024KT 9999 BKN015 BKN023 OVC084 15/13 Q1010 BECMG 15023G35KT BKN013 EDLN 250820Z 16011KT 110V210 CAVOK 14/07 Q1007 EDDM 250820Z 10009KT CAVOK 17/06 Q1011 NOSIG EDDG 250820Z 16013KT 130V200 CAVOK 16/06 Q1008 NOSIG ETSN 250820Z 08009KT 9999 FEW230 17/04 Q1011 BLU+BLU+ ETHN 250720Z 14015KT 9999 FEW130 14/05 Q1010 BLU+BLU+ LFMN 250800Z 03004KT 360V070 9999 FEW013 BKN083 15/07 Q1018 NOSIG EDDN 250820Z 10011KT 070V130 CAVOK 18/02 Q1011 NOSIG EDMO 250820Z 10008KT CAVOK 18/05 Q1011 EDLP 250820Z 17009KT 130V210 CAVOK 16/03 Q1009 LIPR 250820Z 05003KT 330V090 CAVOK 19/10 Q1019 EDDR 250820Z 06008KT 030V090 9999 FEW026 10/07 Q1008 NOSIG LOWS 250820Z 15015KT CAVOK 21/03 Q1011 NOSIG LSGS 250820Z 07024G35KT 030V100 9999 FEW120 SCT250 17/M00 Q1010 EDDS 250820Z 09008KT 060V160 CAVOK 18/05 Q1009 NOSIG LFTH 250800Z AUTO 09012KT 9999 OVC010 15/13 Q1016 TEMPO 10015G25KT BKN020 LIVT 250755Z 12005KT CAVOK 20/14 Q1018 RMK SCT SCT200 QUK 2 QUL 0 VIS MAR 20 KM VIS MIN 9999 LIMF 250820Z 04005KT 9999 BKN030 13/09 Q1019 LIPZ 250820Z 04005KT 010V090 9000 BKN011 17/15 Q1019 NOSIG LIPX 250820Z 09006KT 050V120 9999 FEW015 SCT080 18/13 Q1019 EDXW 250820Z 17014KT CAVOK 13/10 Q1009 LOWW 250820Z 13004KT 060V180 CAVOK 21/09 Q1014 NOSIG LSZH 250820Z 31004KT 270V360 CAVOK 14/07 Q1009 NOSIG

METAR Messwerte

Klicken Sie auf einen Ort, um die 36h-Historie abzurufen

Ort
m ü. NN
Zeit Temperatur Taupunkt Rel.
Luftfeuchte
Luftdruck:
Altimeter
NN
Station
Wind in Beaufort
(Knoten)
Sichtweite
(Meter)
Wolken
(Meter über Grund)
Wettererscheinung
Ansbach
467
Do 25.04. 09:5615448 %1012
1012
957
OSO 4 (11)>= 10000  
Augsburg
463
Do 25.04. 10:2018439 %1011
1010
957
O 4 (11)
ONO - SO
>= 10000Nicht signifikant 
Bad Windsheim / Illesheim
325
Do 25.04. 09:5617545 %1012
1012
974
O 3 (7)9000 Dunst
Berlin-Tegel
37
Do 25.04. 10:2017855 %1012
1012
1008
SW 2 (6)
S - W
>= 10000Nicht signifikant 
Bern/Belp
505
Do 25.04. 10:2013872 %1008
1008
949
Windstill>= 10000Nicht signifikant 
Bozen
241
Do 25.04. 09:50151282 %1019
1019
990
Uml 1 (2)>= 10000Wolkig (1200)
Leicht bewölkt (610)
 
Braunschweig
88
Do 25.04. 10:2017648 %1011
1011
1000
S 2 (5)
SO - W
>= 10000Nicht signifikant 
Bremen
5
Do 25.04. 10:2015967 %1009
1009
1008
S 4 (11)>= 10000Nicht signifikant 
Cannes
9
Do 25.04. 10:0015967 %1018
1018
1017
Windstill
Bald Übergang zu:
O 3 (10)
>= 10000Bedeckt (2600) 
Dortmund/Wickede
127
Do 25.04. 10:2015551 %1008
1008
993
S 5 (16)
SSO - WSW
>= 10000Nicht signifikant 
Dresden-Klotzsche
226
Do 25.04. 10:2018337 %1014
1014
987
Uml 1 (2)>= 10000Nicht signifikant 
Düsseldorf
44
Do 25.04. 10:2015759 %1007
1007
1002
S 4 (14)
SO - SSW
Bald Übergang zu:
S 4 (15) - 6 (25)
>= 10000Nicht signifikant 
Erfurt-Bindersleben
323
Do 25.04. 10:2017442 %1011
1011
973
OSO 2 (5)
O - SSO
>= 10000Nicht signifikant 
Florenz
38
Do 25.04. 10:20181373 %1019
1019
1014
W 2 (3)
SW - N
>= 10000Nicht signifikant 
Frankfurt
113
Do 25.04. 10:2015551 %1010
1010
997
Uml 2 (3)>= 10000Nicht signifikant 
Friedrichshafen
424
Do 25.04. 10:2019437 %1009
1008
959
SSO 3 (7)
OSO - S
>= 10000Nicht signifikant 
Fritzlar
181
Do 25.04. 10:2014763 %1011
1011
989
S 2 (4)>= 10000Wolkig (7300)
Leicht bewölkt (3000)
 
Genua
3
Do 25.04. 10:20161488 %1018
1018
1018
Uml 2 (5)>= 10000Stark bewölkt (1700)
Leicht bewölkt (550)
 
Grafenwöhr
415
Do 25.04. 09:5615551 %1013
1013
964
OSO 2 (3)>= 10000  
Graz-Thalerhof
347
Do 25.04. 10:2021740 %1016
1015
975
SSO 2 (6)
ONO - SW
>= 10000Leicht bewölkt (1500) 
Hamburg-Fuhlsbüttel
16
Do 25.04. 10:2016859 %1010
1010
1008
SO 3 (7)
O - S
>= 10000Nicht signifikant 
Hannover
54
Do 25.04. 10:2016755 %1010
1010
1004
S 3 (9)
SO - SW
>= 10000Nicht signifikant 
Hof
568
Do 25.04. 10:2016445 %1013
1013
947
OSO 3 (7)
ONO - SO
>= 10000Nicht signifikant 
Hohenfels
442
Do 25.04. 09:5617648 %1013
1013
961
ONO 2 (4)>= 10000  
Ingolstadt
370
Do 25.04. 10:2017545 %1011
1011
967
ONO 2 (6)>= 10000Leicht bewölkt (7600) 
Innsbruck
581
Do 25.04. 10:2017339 %1013
1013
945
OSO 5 (18) - 8 (40)
ONO - SSW
>= 10000Leicht bewölkt (2100) 
Kassel/Calden
285
Do 25.04. 10:2016651 %1010
1010
976
SO 4 (13)>= 10000Nicht signifikant 
Kiel
31
Do 25.04. 10:20161068 %1010
1010
1006
 >= 10000Leicht bewölkt (640) 
Klagenfurt
441
Do 25.04. 10:2019849 %1018
1017
966
W 3 (7)
S - NNW
>= 10000Leicht bewölkt (1500) 
Köln/Bonn
99
Do 25.04. 10:2014658 %1008
1008
996
SSO 4 (14)>= 10000Nicht signifikant 
Leipzig-Schkeuditz
149
Do 25.04. 10:2018645 %1013
1013
995
S 3 (8)>= 10000Nicht signifikant 
Linz/Hörsching
313
Do 25.04. 10:2020743 %1013
1012
976
O 3 (7)>= 10000Nicht signifikant 
Lugano
276
Do 25.04. 10:20161277 %1019
1019
986
Uml 1 (2)>= 10000Wolkig (1400) 
Lübeck-Blankensee
16
Do 25.04. 10:2016859 %1010
1010
1008
S 3 (7)
SSO - SW
>= 10000Nicht signifikant 
Mailand
103
Do 25.04. 10:20141394 %1019
1019
1007
O 2 (5)
ONO - OSO
4000Stark bewölkt (910)
Wolkig (150)
Nebeldunst
Marseille/Marignane
36
Do 25.04. 10:00171063 %1013
1013
1009
OSO 5 (20)>= 10000Leicht bewölkt (980) 
Montpellier
6
Do 25.04. 10:00151388 %1010
1010
1009
SSO 6 (24)
Bald Übergang zu:
SSO 6 (23) - 8 (35)
>= 10000Bedeckt (2600)
Stark bewölkt (700)
Stark bewölkt (460)
 
Mönchengladbach
38
Do 25.04. 10:2014763 %1007
1007
1002
SSO 4 (11)
OSO - SSW
>= 10000Nicht signifikant 
München
447
Do 25.04. 10:2017648 %1011
1011
959
O 3 (9)>= 10000Nicht signifikant 
Münster/Osnabrück
52
Do 25.04. 10:2016651 %1008
1008
1002
SSO 4 (13)
SO - SSW
>= 10000Nicht signifikant 
Neuburg/Donau
387
Do 25.04. 10:2017442 %1011
1011
965
O 3 (9)>= 10000Leicht bewölkt (7000) 
Niederstetten
473
Do 25.04. 09:2014555 %1010
1010
955
SO 4 (15)>= 10000Leicht bewölkt (4000) 
Nizza
10
Do 25.04. 10:0015759 %1018
1018
1017
NNO 2 (4)
N - ONO
>= 10000Stark bewölkt (2500)
Leicht bewölkt (400)
 
Nürnberg
312
Do 25.04. 10:2018234 %1011
1011
974
O 4 (11)
ONO - SO
>= 10000Nicht signifikant 
Oberpfaffenhofen
600
Do 25.04. 10:2018542 %1011
1010
941
O 3 (8)>= 10000Nicht signifikant 
Paderborn/Lippstadt
213
Do 25.04. 10:2016342 %1009
1009
984
S 3 (9)
SO - SSW
>= 10000Nicht signifikant 
Rimini
13
Do 25.04. 10:20191056 %1019
1019
1017
NO 2 (3)
NNW - O
>= 10000Nicht signifikant 
Saarbrücken/Ensheim
320
Do 25.04. 10:2010782 %1008
1009
970
ONO 3 (8)
NNO - O
>= 10000Leicht bewölkt (790) 
Salzburg
450
Do 25.04. 10:2021330 %1011
1010
958
SSO 4 (15)>= 10000Nicht signifikant 
Sion
481
Do 25.04. 10:2017-032 %1010
1010
954
ONO 6 (24) - 8 (35)
NNO - O
>= 10000Wolkig (7600)
Leicht bewölkt (3700)
 
Stuttgart
419
Do 25.04. 10:2018542 %1009
1008
960
O 3 (8)
ONO - SSO
>= 10000Nicht signifikant 
Toulon
4
Do 25.04. 10:00151388 %1016
1016
1016
O 4 (12)
Bald möglich:
O 4 (15) - 6 (25)
>= 10000Bedeckt (300) 
Triest
20
Do 25.04. 09:55201468 %1018
1018
1016
OSO 2 (5)>= 10000Nicht signifikant 
Turin
287
Do 25.04. 10:2013977 %1019
1019
985
NO 2 (5)>= 10000Stark bewölkt (910) 
Venedig
6
Do 25.04. 10:20171588 %1019
1019
1018
NO 2 (5)
N - O
9000Stark bewölkt (340) 
Verona/Villafranca
68
Do 25.04. 10:20181373 %1019
1019
1011
O 2 (6)
NO - OSO
>= 10000Wolkig (2400)
Leicht bewölkt (460)
 
Westerland/Sylt
20
Do 25.04. 10:20131082 %1009
1009
1007
S 4 (14)>= 10000Nicht signifikant 
Wien/Schwechat
190
Do 25.04. 10:2021946 %1014
1014
991
SO 2 (4)
ONO - S
>= 10000Nicht signifikant 
Zürich-Kloten
432
Do 25.04. 10:2014763 %1009
1009
958
NW 2 (4)
W - N
>= 10000Nicht signifikant 

Altimeter: Einstellung am Altimeter (Höhenmesser), die Höhe 0 muss auf diesen Luftdruckwert zeigen, damit das Gerät die Stationshöhe richtig anzeigt.

NN: Luftdruck reduziert auf "Normal Null", auf Meereshöhe, dieser von der Temperatur abhängige Wert wird bisweilen unkorrekt einfach als "Luftdruck" bezeichnet. Eigentlich nur eine fiktive Größe, die es erlaubt, Stationen auf unterschiedlichen Höhen miteinander zu vergleichen.

Station: Realer Luftdruck an der Station.